sensor_id;sensor_type;location;lat;lon;timestamp;P1;durP1;ratioP1;P2;durP2;ratioP2
36009;SDS011;22076;52.182;5.404;2023-05-07T00:01:26;8.55;;;6.55;;
36009;SDS011;22076;52.182;5.404;2023-05-07T00:03:52;12.07;;;7.63;;
36009;SDS011;22076;52.182;5.404;2023-05-07T00:06:19;8.45;;;6.45;;
36009;SDS011;22076;52.182;5.404;2023-05-07T00:08:46;5.80;;;4.90;;
36009;SDS011;22076;52.182;5.404;2023-05-07T00:11:13;7.60;;;5.72;;
36009;SDS011;22076;52.182;5.404;2023-05-07T00:13:40;10.35;;;7.18;;
36009;SDS011;22076;52.182;5.404;2023-05-07T00:16:07;10.55;;;7.10;;
36009;SDS011;22076;52.182;5.404;2023-05-07T00:18:33;9.70;;;5.88;;
36009;SDS011;22076;52.182;5.404;2023-05-07T00:21:00;8.38;;;5.70;;
36009;SDS011;22076;52.182;5.404;2023-05-07T00:23:26;8.25;;;5.40;;
36009;SDS011;22076;52.182;5.404;2023-05-07T00:25:53;6.68;;;4.57;;
36009;SDS011;22076;52.182;5.404;2023-05-07T00:28:21;9.77;;;7.22;;
36009;SDS011;22076;52.182;5.404;2023-05-07T00:30:47;7.25;;;5.57;;
36009;SDS011;22076;52.182;5.404;2023-05-07T00:33:14;8.88;;;5.35;;
36009;SDS011;22076;52.182;5.404;2023-05-07T00:35:41;7.05;;;5.65;;
36009;SDS011;22076;52.182;5.404;2023-05-07T00:38:08;7.07;;;5.40;;
36009;SDS011;22076;52.182;5.404;2023-05-07T00:40:34;9.65;;;6.93;;
36009;SDS011;22076;52.182;5.404;2023-05-07T00:43:01;8.50;;;5.43;;
36009;SDS011;22076;52.182;5.404;2023-05-07T00:45:29;10.82;;;7.70;;
36009;SDS011;22076;52.182;5.404;2023-05-07T00:47:56;9.05;;;7.40;;
36009;SDS011;22076;52.182;5.404;2023-05-07T00:50:23;8.38;;;6.40;;
36009;SDS011;22076;52.182;5.404;2023-05-07T00:52:50;9.85;;;6.38;;
36009;SDS011;22076;52.182;5.404;2023-05-07T00:55:17;8.43;;;6.25;;
36009;SDS011;22076;52.182;5.404;2023-05-07T00:57:44;9.77;;;6.78;;
36009;SDS011;22076;52.182;5.404;2023-05-07T01:00:11;10.07;;;7.13;;
36009;SDS011;22076;52.182;5.404;2023-05-07T01:02:39;6.85;;;5.60;;
36009;SDS011;22076;52.182;5.404;2023-05-07T01:05:07;8.27;;;5.93;;
36009;SDS011;22076;52.182;5.404;2023-05-07T01:07:35;7.95;;;5.55;;
36009;SDS011;22076;52.182;5.404;2023-05-07T01:10:03;9.23;;;8.05;;
36009;SDS011;22076;52.182;5.404;2023-05-07T01:12:31;7.97;;;6.65;;
36009;SDS011;22076;52.182;5.404;2023-05-07T01:14:58;9.32;;;5.75;;
36009;SDS011;22076;52.182;5.404;2023-05-07T01:17:24;10.50;;;7.78;;
36009;SDS011;22076;52.182;5.404;2023-05-07T01:19:52;8.88;;;7.47;;
36009;SDS011;22076;52.182;5.404;2023-05-07T01:22:24;13.57;;;8.00;;
36009;SDS011;22076;52.182;5.404;2023-05-07T01:24:57;9.00;;;6.32;;
36009;SDS011;22076;52.182;5.404;2023-05-07T01:27:24;7.82;;;5.85;;
36009;SDS011;22076;52.182;5.404;2023-05-07T01:29:51;10.65;;;7.80;;
36009;SDS011;22076;52.182;5.404;2023-05-07T01:32:17;9.00;;;7.18;;
36009;SDS011;22076;52.182;5.404;2023-05-07T01:34:45;15.05;;;8.98;;
36009;SDS011;22076;52.182;5.404;2023-05-07T01:37:12;9.52;;;5.88;;
36009;SDS011;22076;52.182;5.404;2023-05-07T01:39:40;12.07;;;7.50;;
36009;SDS011;22076;52.182;5.404;2023-05-07T01:42:08;10.70;;;6.93;;
36009;SDS011;22076;52.182;5.404;2023-05-07T01:44:34;6.38;;;5.13;;
36009;SDS011;22076;52.182;5.404;2023-05-07T01:47:01;12.30;;;7.60;;
36009;SDS011;22076;52.182;5.404;2023-05-07T01:49:28;10.30;;;7.32;;
36009;SDS011;22076;52.182;5.404;2023-05-07T01:51:55;11.32;;;8.23;;
36009;SDS011;22076;52.182;5.404;2023-05-07T01:54:24;9.82;;;7.38;;
36009;SDS011;22076;52.182;5.404;2023-05-07T01:56:54;10.70;;;7.30;;
36009;SDS011;22076;52.182;5.404;2023-05-07T01:59:21;11.32;;;7.68;;
36009;SDS011;22076;52.182;5.404;2023-05-07T02:01:48;11.77;;;7.13;;
36009;SDS011;22076;52.182;5.404;2023-05-07T02:04:15;10.80;;;9.13;;
36009;SDS011;22076;52.182;5.404;2023-05-07T02:06:41;11.55;;;8.73;;
36009;SDS011;22076;52.182;5.404;2023-05-07T02:09:08;9.70;;;7.05;;
36009;SDS011;22076;52.182;5.404;2023-05-07T02:11:34;12.13;;;8.93;;
36009;SDS011;22076;52.182;5.404;2023-05-07T02:14:02;11.60;;;7.50;;
36009;SDS011;22076;52.182;5.404;2023-05-07T02:16:29;9.75;;;7.57;;
36009;SDS011;22076;52.182;5.404;2023-05-07T02:18:55;12.15;;;7.40;;
36009;SDS011;22076;52.182;5.404;2023-05-07T02:21:23;15.50;;;9.95;;
36009;SDS011;22076;52.182;5.404;2023-05-07T02:23:50;12.93;;;9.40;;
36009;SDS011;22076;52.182;5.404;2023-05-07T02:26:16;12.43;;;9.52;;
36009;SDS011;22076;52.182;5.404;2023-05-07T02:28:43;9.43;;;5.68;;
36009;SDS011;22076;52.182;5.404;2023-05-07T02:31:11;13.95;;;8.75;;
36009;SDS011;22076;52.182;5.404;2023-05-07T02:33:38;8.32;;;6.20;;
36009;SDS011;22076;52.182;5.404;2023-05-07T02:36:07;7.25;;;5.82;;
36009;SDS011;22076;52.182;5.404;2023-05-07T02:38:34;14.13;;;7.60;;
36009;SDS011;22076;52.182;5.404;2023-05-07T02:41:01;8.88;;;6.00;;
36009;SDS011;22076;52.182;5.404;2023-05-07T02:43:28;8.35;;;6.80;;
36009;SDS011;22076;52.182;5.404;2023-05-07T02:46:01;6.28;;;5.55;;
36009;SDS011;22076;52.182;5.404;2023-05-07T02:48:30;8.80;;;5.63;;
36009;SDS011;22076;52.182;5.404;2023-05-07T02:50:56;13.32;;;8.23;;
36009;SDS011;22076;52.182;5.404;2023-05-07T02:53:23;10.13;;;6.88;;
36009;SDS011;22076;52.182;5.404;2023-05-07T02:55:51;13.38;;;9.35;;
36009;SDS011;22076;52.182;5.404;2023-05-07T02:58:17;12.20;;;10.35;;
36009;SDS011;22076;52.182;5.404;2023-05-07T03:00:44;12.95;;;8.52;;
36009;SDS011;22076;52.182;5.404;2023-05-07T03:03:10;9.02;;;6.70;;
36009;SDS011;22076;52.182;5.404;2023-05-07T03:05:38;9.50;;;6.78;;
36009;SDS011;22076;52.182;5.404;2023-05-07T03:08:05;8.07;;;6.25;;
36009;SDS011;22076;52.182;5.404;2023-05-07T03:10:31;10.63;;;8.57;;
36009;SDS011;22076;52.182;5.404;2023-05-07T03:12:58;9.63;;;6.85;;
36009;SDS011;22076;52.182;5.404;2023-05-07T03:15:24;12.10;;;9.55;;
36009;SDS011;22076;52.182;5.404;2023-05-07T03:17:51;15.10;;;11.10;;
36009;SDS011;22076;52.182;5.404;2023-05-07T03:20:17;13.20;;;8.10;;
36009;SDS011;22076;52.182;5.404;2023-05-07T03:22:45;10.57;;;7.38;;
36009;SDS011;22076;52.182;5.404;2023-05-07T03:25:12;13.45;;;8.68;;
36009;SDS011;22076;52.182;5.404;2023-05-07T03:27:39;14.93;;;11.07;;
36009;SDS011;22076;52.182;5.404;2023-05-07T03:30:07;11.00;;;7.68;;
36009;SDS011;22076;52.182;5.404;2023-05-07T03:32:34;12.80;;;9.30;;
36009;SDS011;22076;52.182;5.404;2023-05-07T03:35:01;11.07;;;8.15;;
36009;SDS011;22076;52.182;5.404;2023-05-07T03:37:28;15.13;;;11.45;;
36009;SDS011;22076;52.182;5.404;2023-05-07T03:39:56;13.07;;;9.07;;
36009;SDS011;22076;52.182;5.404;2023-05-07T03:42:23;15.18;;;10.48;;
36009;SDS011;22076;52.182;5.404;2023-05-07T03:44:49;16.27;;;11.23;;
36009;SDS011;22076;52.182;5.404;2023-05-07T03:47:16;18.00;;;12.57;;
36009;SDS011;22076;52.182;5.404;2023-05-07T03:49:42;17.75;;;12.82;;
36009;SDS011;22076;52.182;5.404;2023-05-07T03:52:09;16.27;;;13.27;;
36009;SDS011;22076;52.182;5.404;2023-05-07T03:54:36;14.73;;;11.82;;
36009;SDS011;22076;52.182;5.404;2023-05-07T03:57:04;17.08;;;11.40;;
36009;SDS011;22076;52.182;5.404;2023-05-07T03:59:30;19.20;;;14.38;;
36009;SDS011;22076;52.182;5.404;2023-05-07T04:01:57;18.15;;;12.63;;
36009;SDS011;22076;52.182;5.404;2023-05-07T04:04:24;19.73;;;13.20;;
36009;SDS011;22076;52.182;5.404;2023-05-07T04:06:51;14.90;;;9.77;;
36009;SDS011;22076;52.182;5.404;2023-05-07T04:09:18;15.88;;;12.80;;
36009;SDS011;22076;52.182;5.404;2023-05-07T04:11:45;18.10;;;14.02;;
36009;SDS011;22076;52.182;5.404;2023-05-07T04:14:12;20.00;;;14.85;;
36009;SDS011;22076;52.182;5.404;2023-05-07T04:16:40;22.02;;;14.98;;
36009;SDS011;22076;52.182;5.404;2023-05-07T04:19:06;14.52;;;11.63;;
36009;SDS011;22076;52.182;5.404;2023-05-07T04:21:33;19.02;;;14.50;;
36009;SDS011;22076;52.182;5.404;2023-05-07T04:23:59;19.70;;;14.63;;
36009;SDS011;22076;52.182;5.404;2023-05-07T04:26:26;21.40;;;15.13;;
36009;SDS011;22076;52.182;5.404;2023-05-07T04:28:53;13.32;;;9.50;;
36009;SDS011;22076;52.182;5.404;2023-05-07T04:31:21;19.08;;;14.48;;
36009;SDS011;22076;52.182;5.404;2023-05-07T04:33:47;7.57;;;5.97;;
36009;SDS011;22076;52.182;5.404;2023-05-07T04:36:15;10.73;;;8.02;;
36009;SDS011;22076;52.182;5.404;2023-05-07T04:38:42;10.32;;;8.32;;
36009;SDS011;22076;52.182;5.404;2023-05-07T04:41:09;11.25;;;8.70;;
36009;SDS011;22076;52.182;5.404;2023-05-07T04:43:36;11.88;;;8.90;;
36009;SDS011;22076;52.182;5.404;2023-05-07T04:46:02;13.55;;;9.48;;
36009;SDS011;22076;52.182;5.404;2023-05-07T04:48:31;15.25;;;10.93;;
36009;SDS011;22076;52.182;5.404;2023-05-07T04:50:57;15.57;;;10.63;;
36009;SDS011;22076;52.182;5.404;2023-05-07T04:53:24;14.95;;;11.18;;
36009;SDS011;22076;52.182;5.404;2023-05-07T04:55:54;19.30;;;14.77;;
36009;SDS011;22076;52.182;5.404;2023-05-07T04:58:21;16.73;;;12.23;;
36009;SDS011;22076;52.182;5.404;2023-05-07T05:00:48;13.95;;;9.02;;
36009;SDS011;22076;52.182;5.404;2023-05-07T05:03:14;19.02;;;13.20;;
36009;SDS011;22076;52.182;5.404;2023-05-07T05:05:42;16.63;;;10.40;;
36009;SDS011;22076;52.182;5.404;2023-05-07T05:08:09;13.15;;;9.10;;
36009;SDS011;22076;52.182;5.404;2023-05-07T05:10:35;19.13;;;13.93;;
36009;SDS011;22076;52.182;5.404;2023-05-07T05:13:02;18.48;;;12.57;;
36009;SDS011;22076;52.182;5.404;2023-05-07T05:15:28;18.67;;;14.43;;
36009;SDS011;22076;52.182;5.404;2023-05-07T05:17:55;22.67;;;14.80;;
36009;SDS011;22076;52.182;5.404;2023-05-07T05:20:21;23.17;;;16.90;;
36009;SDS011;22076;52.182;5.404;2023-05-07T05:22:49;13.23;;;9.45;;
36009;SDS011;22076;52.182;5.404;2023-05-07T05:25:15;17.85;;;11.32;;
36009;SDS011;22076;52.182;5.404;2023-05-07T05:27:42;16.30;;;11.95;;
36009;SDS011;22076;52.182;5.404;2023-05-07T05:30:09;13.02;;;10.40;;
36009;SDS011;22076;52.182;5.404;2023-05-07T05:32:36;13.70;;;10.60;;
36009;SDS011;22076;52.182;5.404;2023-05-07T05:35:03;18.42;;;13.75;;
36009;SDS011;22076;52.182;5.404;2023-05-07T05:37:30;21.05;;;16.63;;
36009;SDS011;22076;52.182;5.404;2023-05-07T05:39:58;22.00;;;14.68;;
36009;SDS011;22076;52.182;5.404;2023-05-07T05:42:25;23.23;;;16.38;;
36009;SDS011;22076;52.182;5.404;2023-05-07T05:44:51;28.38;;;19.92;;
36009;SDS011;22076;52.182;5.404;2023-05-07T05:47:18;24.83;;;18.38;;
36009;SDS011;22076;52.182;5.404;2023-05-07T05:49:45;18.90;;;15.32;;
36009;SDS011;22076;52.182;5.404;2023-05-07T05:52:11;30.63;;;19.88;;
36009;SDS011;22076;52.182;5.404;2023-05-07T05:54:39;28.30;;;21.02;;
36009;SDS011;22076;52.182;5.404;2023-05-07T05:57:07;31.05;;;21.83;;
36009;SDS011;22076;52.182;5.404;2023-05-07T05:59:34;28.40;;;20.27;;
36009;SDS011;22076;52.182;5.404;2023-05-07T06:02:00;27.65;;;20.30;;
36009;SDS011;22076;52.182;5.404;2023-05-07T06:04:27;20.15;;;15.48;;
36009;SDS011;22076;52.182;5.404;2023-05-07T06:06:53;28.35;;;21.42;;
36009;SDS011;22076;52.182;5.404;2023-05-07T06:09:20;15.25;;;12.38;;
36009;SDS011;22076;52.182;5.404;2023-05-07T06:11:46;20.27;;;15.20;;
36009;SDS011;22076;52.182;5.404;2023-05-07T06:14:14;30.45;;;20.40;;
36009;SDS011;22076;52.182;5.404;2023-05-07T06:16:40;29.63;;;21.20;;
36009;SDS011;22076;52.182;5.404;2023-05-07T06:19:07;27.05;;;21.15;;
36009;SDS011;22076;52.182;5.404;2023-05-07T06:21:33;32.65;;;23.15;;
36009;SDS011;22076;52.182;5.404;2023-05-07T06:24:00;24.95;;;18.45;;
36009;SDS011;22076;52.182;5.404;2023-05-07T06:26:26;32.08;;;23.50;;
36009;SDS011;22076;52.182;5.404;2023-05-07T06:28:53;32.33;;;22.95;;
36009;SDS011;22076;52.182;5.404;2023-05-07T06:31:21;27.27;;;18.40;;
36009;SDS011;22076;52.182;5.404;2023-05-07T06:33:47;22.40;;;15.60;;
36009;SDS011;22076;52.182;5.404;2023-05-07T06:36:14;20.98;;;14.40;;
36009;SDS011;22076;52.182;5.404;2023-05-07T06:38:41;32.72;;;23.42;;
36009;SDS011;22076;52.182;5.404;2023-05-07T06:41:07;34.45;;;23.88;;
36009;SDS011;22076;52.182;5.404;2023-05-07T06:43:34;34.53;;;23.52;;
36009;SDS011;22076;52.182;5.404;2023-05-07T06:46:01;28.45;;;19.73;;
36009;SDS011;22076;52.182;5.404;2023-05-07T06:48:29;20.63;;;15.65;;
36009;SDS011;22076;52.182;5.404;2023-05-07T06:50:56;30.10;;;23.33;;
36009;SDS011;22076;52.182;5.404;2023-05-07T06:53:22;30.10;;;22.80;;
36009;SDS011;22076;52.182;5.404;2023-05-07T06:55:49;32.08;;;22.50;;
36009;SDS011;22076;52.182;5.404;2023-05-07T06:58:17;28.27;;;20.67;;
36009;SDS011;22076;52.182;5.404;2023-05-07T07:00:43;28.08;;;19.08;;
36009;SDS011;22076;52.182;5.404;2023-05-07T07:03:10;33.60;;;21.92;;
36009;SDS011;22076;52.182;5.404;2023-05-07T07:05:40;34.95;;;24.13;;
36009;SDS011;22076;52.182;5.404;2023-05-07T07:08:06;34.05;;;25.65;;
36009;SDS011;22076;52.182;5.404;2023-05-07T07:10:33;27.75;;;19.80;;
36009;SDS011;22076;52.182;5.404;2023-05-07T07:13:00;26.27;;;19.55;;
36009;SDS011;22076;52.182;5.404;2023-05-07T07:15:26;33.22;;;23.23;;
36009;SDS011;22076;52.182;5.404;2023-05-07T07:17:53;29.17;;;19.42;;
36009;SDS011;22076;52.182;5.404;2023-05-07T07:20:19;29.98;;;22.38;;
36009;SDS011;22076;52.182;5.404;2023-05-07T07:22:47;25.77;;;20.05;;
36009;SDS011;22076;52.182;5.404;2023-05-07T07:25:14;37.17;;;26.67;;
36009;SDS011;22076;52.182;5.404;2023-05-07T07:27:41;33.38;;;25.92;;
36009;SDS011;22076;52.182;5.404;2023-05-07T07:30:07;37.45;;;25.35;;
36009;SDS011;22076;52.182;5.404;2023-05-07T07:32:34;23.50;;;16.52;;
36009;SDS011;22076;52.182;5.404;2023-05-07T07:35:01;30.98;;;22.48;;
36009;SDS011;22076;52.182;5.404;2023-05-07T07:37:28;36.88;;;24.75;;
36009;SDS011;22076;52.182;5.404;2023-05-07T07:39:56;31.17;;;20.08;;
36009;SDS011;22076;52.182;5.404;2023-05-07T07:42:22;35.60;;;24.88;;
36009;SDS011;22076;52.182;5.404;2023-05-07T07:44:49;32.53;;;21.48;;
36009;SDS011;22076;52.182;5.404;2023-05-07T07:47:15;25.80;;;20.02;;
36009;SDS011;22076;52.182;5.404;2023-05-07T07:49:42;31.42;;;24.08;;
36009;SDS011;22076;52.182;5.404;2023-05-07T07:52:08;35.33;;;26.48;;
36009;SDS011;22076;52.182;5.404;2023-05-07T07:54:35;35.80;;;25.42;;
36009;SDS011;22076;52.182;5.404;2023-05-07T07:57:03;37.67;;;28.27;;
36009;SDS011;22076;52.182;5.404;2023-05-07T07:59:30;38.08;;;27.98;;
36009;SDS011;22076;52.182;5.404;2023-05-07T08:01:57;40.47;;;28.65;;
36009;SDS011;22076;52.182;5.404;2023-05-07T08:04:23;44.97;;;32.38;;
36009;SDS011;22076;52.182;5.404;2023-05-07T08:06:50;42.50;;;29.60;;
36009;SDS011;22076;52.182;5.404;2023-05-07T08:09:16;49.65;;;34.35;;
36009;SDS011;22076;52.182;5.404;2023-05-07T08:11:43;43.42;;;32.60;;
36009;SDS011;22076;52.182;5.404;2023-05-07T08:14:11;38.28;;;26.38;;
36009;SDS011;22076;52.182;5.404;2023-05-07T08:16:38;43.03;;;31.90;;
36009;SDS011;22076;52.182;5.404;2023-05-07T08:19:04;28.65;;;20.00;;
36009;SDS011;22076;52.182;5.404;2023-05-07T08:21:31;50.00;;;33.90;;
36009;SDS011;22076;52.182;5.404;2023-05-07T08:23:58;38.42;;;29.42;;
36009;SDS011;22076;52.182;5.404;2023-05-07T08:26:24;30.85;;;23.38;;
36009;SDS011;22076;52.182;5.404;2023-05-07T08:28:51;33.47;;;24.90;;
36009;SDS011;22076;52.182;5.404;2023-05-07T08:31:18;41.08;;;30.05;;
36009;SDS011;22076;52.182;5.404;2023-05-07T08:33:45;35.53;;;26.90;;
36009;SDS011;22076;52.182;5.404;2023-05-07T08:36:11;40.50;;;27.40;;
36009;SDS011;22076;52.182;5.404;2023-05-07T08:38:38;41.40;;;30.13;;
36009;SDS011;22076;52.182;5.404;2023-05-07T08:41:09;27.38;;;22.08;;
36009;SDS011;22076;52.182;5.404;2023-05-07T08:43:36;39.85;;;28.17;;
36009;SDS011;22076;52.182;5.404;2023-05-07T08:46:04;38.38;;;27.67;;
36009;SDS011;22076;52.182;5.404;2023-05-07T08:48:32;35.85;;;25.75;;
36009;SDS011;22076;52.182;5.404;2023-05-07T08:50:58;35.42;;;28.00;;
36009;SDS011;22076;52.182;5.404;2023-05-07T08:53:25;41.22;;;28.77;;
36009;SDS011;22076;52.182;5.404;2023-05-07T08:55:52;30.83;;;21.60;;
36009;SDS011;22076;52.182;5.404;2023-05-07T08:58:19;33.78;;;24.85;;
36009;SDS011;22076;52.182;5.404;2023-05-07T09:00:45;28.35;;;19.52;;
36009;SDS011;22076;52.182;5.404;2023-05-07T09:03:13;26.38;;;19.98;;
36009;SDS011;22076;52.182;5.404;2023-05-07T09:05:41;38.00;;;27.55;;
36009;SDS011;22076;52.182;5.404;2023-05-07T09:08:08;25.90;;;19.45;;
36009;SDS011;22076;52.182;5.404;2023-05-07T09:10:35;24.80;;;19.17;;
36009;SDS011;22076;52.182;5.404;2023-05-07T09:13:02;31.15;;;21.10;;
36009;SDS011;22076;52.182;5.404;2023-05-07T09:15:28;41.10;;;28.80;;
36009;SDS011;22076;52.182;5.404;2023-05-07T09:17:58;35.17;;;25.05;;
36009;SDS011;22076;52.182;5.404;2023-05-07T09:20:26;47.88;;;30.50;;
36009;SDS011;22076;52.182;5.404;2023-05-07T09:22:56;40.70;;;28.67;;
36009;SDS011;22076;52.182;5.404;2023-05-07T09:25:27;41.35;;;30.63;;
36009;SDS011;22076;52.182;5.404;2023-05-07T09:27:54;29.58;;;22.92;;
36009;SDS011;22076;52.182;5.404;2023-05-07T09:30:21;39.72;;;29.20;;
36009;SDS011;22076;52.182;5.404;2023-05-07T09:32:47;39.28;;;28.65;;
36009;SDS011;22076;52.182;5.404;2023-05-07T09:35:14;42.45;;;28.50;;
36009;SDS011;22076;52.182;5.404;2023-05-07T09:37:41;32.78;;;25.30;;
36009;SDS011;22076;52.182;5.404;2023-05-07T09:40:10;21.73;;;17.33;;
36009;SDS011;22076;52.182;5.404;2023-05-07T09:42:46;31.38;;;24.25;;
36009;SDS011;22076;52.182;5.404;2023-05-07T09:45:13;33.92;;;23.45;;
36009;SDS011;22076;52.182;5.404;2023-05-07T09:47:39;35.38;;;24.55;;
36009;SDS011;22076;52.182;5.404;2023-05-07T09:50:10;34.50;;;22.70;;
36009;SDS011;22076;52.182;5.404;2023-05-07T09:52:39;24.60;;;17.67;;
36009;SDS011;22076;52.182;5.404;2023-05-07T09:55:06;28.58;;;21.05;;
36009;SDS011;22076;52.182;5.404;2023-05-07T09:57:34;28.33;;;20.02;;
36009;SDS011;22076;52.182;5.404;2023-05-07T10:00:02;26.00;;;18.80;;
36009;SDS011;22076;52.182;5.404;2023-05-07T10:02:30;26.90;;;19.10;;
36009;SDS011;22076;52.182;5.404;2023-05-07T10:04:57;23.63;;;16.27;;
36009;SDS011;22076;52.182;5.404;2023-05-07T10:07:25;30.00;;;20.75;;
36009;SDS011;22076;52.182;5.404;2023-05-07T10:09:52;20.10;;;14.20;;
36009;SDS011;22076;52.182;5.404;2023-05-07T10:12:19;21.33;;;16.10;;
36009;SDS011;22076;52.182;5.404;2023-05-07T10:14:47;28.25;;;18.77;;
36009;SDS011;22076;52.182;5.404;2023-05-07T10:17:15;18.88;;;13.07;;
36009;SDS011;22076;52.182;5.404;2023-05-07T10:19:43;21.33;;;16.15;;
36009;SDS011;22076;52.182;5.404;2023-05-07T10:22:10;21.00;;;14.38;;
36009;SDS011;22076;52.182;5.404;2023-05-07T10:24:37;20.98;;;13.13;;
36009;SDS011;22076;52.182;5.404;2023-05-07T10:27:04;16.80;;;11.45;;
36009;SDS011;22076;52.182;5.404;2023-05-07T10:29:35;19.98;;;13.52;;
36009;SDS011;22076;52.182;5.404;2023-05-07T10:32:14;18.27;;;13.95;;
36009;SDS011;22076;52.182;5.404;2023-05-07T10:34:50;15.63;;;11.15;;
36009;SDS011;22076;52.182;5.404;2023-05-07T10:37:20;22.95;;;15.05;;
36009;SDS011;22076;52.182;5.404;2023-05-07T10:39:47;18.85;;;12.60;;
36009;SDS011;22076;52.182;5.404;2023-05-07T10:42:14;25.67;;;17.25;;
36009;SDS011;22076;52.182;5.404;2023-05-07T10:44:41;23.75;;;17.13;;
36009;SDS011;22076;52.182;5.404;2023-05-07T10:47:08;17.38;;;11.77;;
36009;SDS011;22076;52.182;5.404;2023-05-07T10:49:37;22.58;;;16.58;;
36009;SDS011;22076;52.182;5.404;2023-05-07T10:52:42;19.63;;;14.50;;
36009;SDS011;22076;52.182;5.404;2023-05-07T10:55:21;20.38;;;15.77;;
36009;SDS011;22076;52.182;5.404;2023-05-07T10:57:50;21.40;;;13.93;;
36009;SDS011;22076;52.182;5.404;2023-05-07T11:03:08;20.20;;;11.55;;
36009;SDS011;22076;52.182;5.404;2023-05-07T11:05:37;21.48;;;16.60;;
36009;SDS011;22076;52.182;5.404;2023-05-07T11:08:04;23.98;;;16.92;;
36009;SDS011;22076;52.182;5.404;2023-05-07T11:10:47;20.00;;;14.30;;
36009;SDS011;22076;52.182;5.404;2023-05-07T11:13:14;29.02;;;18.75;;
36009;SDS011;22076;52.182;5.404;2023-05-07T11:15:42;24.77;;;18.90;;
36009;SDS011;22076;52.182;5.404;2023-05-07T11:18:11;25.13;;;18.42;;
36009;SDS011;22076;52.182;5.404;2023-05-07T11:20:46;17.70;;;13.55;;
36009;SDS011;22076;52.182;5.404;2023-05-07T11:26:23;21.95;;;15.63;;
36009;SDS011;22076;52.182;5.404;2023-05-07T11:28:50;21.75;;;16.05;;
36009;SDS011;22076;52.182;5.404;2023-05-07T11:31:20;23.73;;;16.92;;
36009;SDS011;22076;52.182;5.404;2023-05-07T11:33:49;26.05;;;19.15;;
36009;SDS011;22076;52.182;5.404;2023-05-07T11:36:17;17.17;;;13.52;;
36009;SDS011;22076;52.182;5.404;2023-05-07T11:38:44;24.95;;;18.33;;
36009;SDS011;22076;52.182;5.404;2023-05-07T11:41:10;18.00;;;12.35;;
36009;SDS011;22076;52.182;5.404;2023-05-07T11:43:37;21.40;;;15.35;;
36009;SDS011;22076;52.182;5.404;2023-05-07T11:46:05;20.35;;;13.40;;
36009;SDS011;22076;52.182;5.404;2023-05-07T11:48:33;16.95;;;11.73;;
36009;SDS011;22076;52.182;5.404;2023-05-07T11:51:00;18.50;;;14.68;;
36009;SDS011;22076;52.182;5.404;2023-05-07T11:53:35;17.75;;;12.23;;
36009;SDS011;22076;52.182;5.404;2023-05-07T11:56:06;25.13;;;16.90;;
36009;SDS011;22076;52.182;5.404;2023-05-07T11:58:32;25.67;;;15.65;;
36009;SDS011;22076;52.182;5.404;2023-05-07T12:00:59;27.95;;;20.65;;
36009;SDS011;22076;52.182;5.404;2023-05-07T12:03:25;20.92;;;15.60;;
36009;SDS011;22076;52.182;5.404;2023-05-07T12:05:52;24.73;;;17.15;;
36009;SDS011;22076;52.182;5.404;2023-05-07T12:08:19;21.40;;;16.73;;
36009;SDS011;22076;52.182;5.404;2023-05-07T12:10:48;17.02;;;12.38;;
36009;SDS011;22076;52.182;5.404;2023-05-07T12:13:16;25.42;;;16.73;;
36009;SDS011;22076;52.182;5.404;2023-05-07T12:15:42;25.88;;;19.23;;
36009;SDS011;22076;52.182;5.404;2023-05-07T12:18:09;21.80;;;17.70;;
36009;SDS011;22076;52.182;5.404;2023-05-07T12:20:36;21.20;;;15.73;;
36009;SDS011;22076;52.182;5.404;2023-05-07T12:23:03;22.13;;;16.67;;
36009;SDS011;22076;52.182;5.404;2023-05-07T12:25:30;20.20;;;15.98;;
36009;SDS011;22076;52.182;5.404;2023-05-07T12:27:58;24.20;;;16.95;;
36009;SDS011;22076;52.182;5.404;2023-05-07T12:30:26;27.25;;;19.27;;
36009;SDS011;22076;52.182;5.404;2023-05-07T12:32:52;20.90;;;15.27;;
36009;SDS011;22076;52.182;5.404;2023-05-07T12:35:25;19.05;;;14.15;;
36009;SDS011;22076;52.182;5.404;2023-05-07T12:37:55;20.65;;;14.20;;
36009;SDS011;22076;52.182;5.404;2023-05-07T12:40:24;16.75;;;13.23;;
36009;SDS011;22076;52.182;5.404;2023-05-07T12:43:01;15.10;;;11.73;;
36009;SDS011;22076;52.182;5.404;2023-05-07T12:45:27;13.73;;;10.82;;
36009;SDS011;22076;52.182;5.404;2023-05-07T12:47:54;21.52;;;17.25;;
36009;SDS011;22076;52.182;5.404;2023-05-07T12:50:20;19.65;;;14.15;;
36009;SDS011;22076;52.182;5.404;2023-05-07T12:52:47;17.00;;;10.45;;
36009;SDS011;22076;52.182;5.404;2023-05-07T12:55:14;21.83;;;16.08;;
36009;SDS011;22076;52.182;5.404;2023-05-07T12:57:42;16.30;;;11.30;;
36009;SDS011;22076;52.182;5.404;2023-05-07T13:00:12;18.50;;;13.75;;
36009;SDS011;22076;52.182;5.404;2023-05-07T13:02:39;20.80;;;15.63;;
36009;SDS011;22076;52.182;5.404;2023-05-07T13:05:09;15.23;;;11.05;;
36009;SDS011;22076;52.182;5.404;2023-05-07T13:07:36;18.88;;;13.27;;
36009;SDS011;22076;52.182;5.404;2023-05-07T13:10:03;17.17;;;10.95;;
36009;SDS011;22076;52.182;5.404;2023-05-07T13:12:30;21.80;;;14.00;;
36009;SDS011;22076;52.182;5.404;2023-05-07T13:14:56;19.33;;;14.18;;
36009;SDS011;22076;52.182;5.404;2023-05-07T13:17:25;22.02;;;13.48;;
36009;SDS011;22076;52.182;5.404;2023-05-07T13:19:52;13.77;;;10.95;;
36009;SDS011;22076;52.182;5.404;2023-05-07T13:22:18;15.77;;;11.25;;
36009;SDS011;22076;52.182;5.404;2023-05-07T13:24:45;17.90;;;10.85;;
36009;SDS011;22076;52.182;5.404;2023-05-07T13:27:12;14.48;;;9.00;;
36009;SDS011;22076;52.182;5.404;2023-05-07T13:29:38;16.48;;;9.02;;
36009;SDS011;22076;52.182;5.404;2023-05-07T13:32:05;19.25;;;12.70;;
36009;SDS011;22076;52.182;5.404;2023-05-07T13:34:33;16.67;;;10.30;;
36009;SDS011;22076;52.182;5.404;2023-05-07T13:36:59;16.23;;;11.07;;
36009;SDS011;22076;52.182;5.404;2023-05-07T13:39:26;21.02;;;14.35;;
36009;SDS011;22076;52.182;5.404;2023-05-07T13:41:52;10.57;;;8.27;;
36009;SDS011;22076;52.182;5.404;2023-05-07T13:44:19;13.07;;;9.07;;
36009;SDS011;22076;52.182;5.404;2023-05-07T13:46:45;13.25;;;8.68;;
36009;SDS011;22076;52.182;5.404;2023-05-07T13:49:12;14.52;;;10.68;;
36009;SDS011;22076;52.182;5.404;2023-05-07T13:51:40;15.20;;;11.20;;
36009;SDS011;22076;52.182;5.404;2023-05-07T13:54:06;19.75;;;14.07;;
36009;SDS011;22076;52.182;5.404;2023-05-07T13:56:33;20.58;;;14.48;;
36009;SDS011;22076;52.182;5.404;2023-05-07T13:58:59;17.35;;;13.13;;
36009;SDS011;22076;52.182;5.404;2023-05-07T14:01:26;17.08;;;12.98;;
36009;SDS011;22076;52.182;5.404;2023-05-07T14:03:52;21.05;;;16.52;;
36009;SDS011;22076;52.182;5.404;2023-05-07T14:06:19;15.18;;;10.75;;
36009;SDS011;22076;52.182;5.404;2023-05-07T14:08:48;11.75;;;9.77;;
36009;SDS011;22076;52.182;5.404;2023-05-07T14:11:15;17.83;;;12.73;;
36009;SDS011;22076;52.182;5.404;2023-05-07T14:13:41;14.50;;;11.25;;
36009;SDS011;22076;52.182;5.404;2023-05-07T14:16:08;15.35;;;10.82;;
36009;SDS011;22076;52.182;5.404;2023-05-07T14:18:34;17.60;;;14.32;;
36009;SDS011;22076;52.182;5.404;2023-05-07T14:21:02;20.42;;;14.98;;
36009;SDS011;22076;52.182;5.404;2023-05-07T14:23:29;19.42;;;13.82;;
36009;SDS011;22076;52.182;5.404;2023-05-07T14:25:57;17.00;;;12.50;;
36009;SDS011;22076;52.182;5.404;2023-05-07T14:28:24;17.83;;;12.75;;
36009;SDS011;22076;52.182;5.404;2023-05-07T14:30:50;16.10;;;11.57;;
36009;SDS011;22076;52.182;5.404;2023-05-07T14:33:17;13.43;;;10.50;;